ADDS METAR Data INFO
IDs: Format: Raw Decoded Include TAF

Data at: 2050 UTC 24 Jun 2018

KLHB 242035Z AUTO 14013G21KT 10SM SCT047 34/22 A2987 RMK AO2 T03380223
KLHB 242015Z AUTO 14011G18KT 10SM SCT047 SCT055 34/23 A2987 RMK AO2 T03380228
KLHB 241955Z AUTO 13009G17KT 10SM SCT047 34/23 A2988 RMK AO2 T03380233
KLHB 241935Z AUTO 13012G18KT 110V170 10SM SCT047 SCT050 34/23 A2989 RMK AO2 T03370231
KLHB 241915Z AUTO 13013G17KT 10SM SCT048 SCT050 33/23 A2989 RMK AO2 T03310227
KLHB 241855Z AUTO 16009G16KT 10SM SCT046 BKN055 34/23 A2990 RMK AO2 T03350234
KLHB 241835Z AUTO 15012G15KT 10SM SCT043 SCT049 33/23 A2990 RMK AO2 T03320229
KLHB 241815Z AUTO 16012G18KT 10SM BKN041 BKN048 33/23 A2991 RMK AO2 T03320229
KLHB 241755Z AUTO 14009G16KT 10SM BKN041 BKN048 32/23 A2990 RMK AO2 T03210226 10328 20251
KLHB 241735Z AUTO 17011G17KT 10SM SCT041 33/23 A2990 RMK AO2 T03270225
KLHB 241715Z AUTO 16011G16KT 10SM SCT038 SCT044 32/22 A2990 RMK AO2 T03200224
KLHB 241655Z AUTO 16012G15KT 10SM SCT036 SCT041 32/23 A2990 RMK AO2 T03180225
KLHB 241635Z AUTO 17010G17KT 10SM BKN034 BKN041 32/23 A2990 RMK AO2 T03180231
KLHB 241615Z AUTO 19011G15KT 10SM SCT032 BKN041 31/23 A2991 RMK AO2 T03120230
KLHB 241555Z AUTO 18009G18KT 10SM BKN030 BKN041 30/23 A2990 RMK AO2 T03020229
KLHB 241535Z AUTO 17011KT 10SM SCT030 BKN035 BKN043 30/23 A2990 RMK AO2 T03020228
KLHB 241515Z AUTO 15012G18KT 10SM BKN027 BKN033 OVC039 30/23 A2990 RMK AO2 T02990231
KLHB 241455Z AUTO 17009KT 10SM BKN025 OVC030 29/23 A2990 RMK AO2 T02870231
KLHB 241435Z AUTO 17011G16KT 10SM OVC023 28/23 A2990 RMK AO2 T02840232
KLHB 241415Z AUTO 16013G16KT 10SM BKN023 OVC027 28/23 A2989 RMK AO2 T02810234
KLHB 241355Z AUTO 15012G18KT 10SM BKN019 OVC024 27/24 A2988 RMK AO2 T02720237
KLHB 241335Z AUTO 18015KT 10SM OVC017 27/24 A2988 RMK AO2 T02670237
KLHB 241315Z AUTO 18012G16KT 10SM BKN017 27/24 A2987 RMK AO2 T02660239
KLHB 241255Z AUTO 16012G21KT 10SM SCT015 26/24 A2985 RMK AO2 T02630240
KLHB 241235Z AUTO 15014G20KT 10SM BKN013 BKN019 26/24 A2983 RMK AO2 T02570242
KLHB 241215Z AUTO 15012G17KT 10SM BKN011 25/24 A2983 RMK AO2 T02520244
KLHB 241155Z AUTO 15009KT 10SM OVC013 25/25 A2983 RMK AO2 T02520246 10268 20252
KLHB 241135Z AUTO 15008G15KT 10SM OVC013 25/25 A2984 RMK AO2 T02520245
KLHB 241115Z AUTO 15010KT 10SM BKN013 OVC018 25/25 A2984 RMK AO2 T02520246
KLHB 241055Z AUTO 15008KT 10SM OVC014 26/24 A2985 RMK AO2 T02550242
KLHB 241035Z AUTO 16008KT 10SM OVC014 26/24 A2986 RMK AO2 T02550243
KLHB 241015Z AUTO 16009KT 10SM BKN017 26/24 A2985 RMK AO2 T02560241
KLHB 240955Z AUTO 15008G15KT 10SM CLR 26/24 A2985 RMK AO2 T02550241
KLHB 240935Z AUTO 14011G15KT 10SM CLR 26/24 A2984 RMK AO2 T02550242
KLHB 240915Z AUTO 15007KT 10SM CLR 26/24 A2986 RMK AO2 T02570237
KLHB 240855Z AUTO 14007KT 10SM SCT049 26/24 A2987 RMK AO2 T02600237
KLHB 240835Z AUTO 15007KT 10SM BKN049 26/24 A2988 RMK AO2 T02610236
KLHB 240815Z AUTO 15005KT 10SM SCT023 BKN049 26/24 A2990 RMK AO2 T02640235
KLHB 240755Z AUTO 19007KT 10SM SCT023 SCT035 BKN047 27/23 A2991 RMK AO2 T02650234
KLHB 240735Z AUTO 16003KT 10SM SCT022 BKN035 OVC041 27/24 A2992 RMK AO2 T02650240
KLHB 240715Z AUTO 18004KT 10SM BKN022 OVC034 27/24 A2992 RMK AO2 T02660239
KLHB 240655Z AUTO 17007KT 10SM SCT024 OVC034 27/24 A2992 RMK AO2 T02660237
KLHB 240635Z AUTO 16008KT 10SM SCT024 OVC032 27/24 A2991 RMK AO2 LTG DSNT W T02670236
KLHB 240615Z AUTO 15010G15KT 10SM SCT024 OVC030 27/23 A2988 RMK AO2 T02680233
KLHB 240555Z AUTO 16011G15KT 10SM SCT023 OVC029 27/23 A2988 RMK AO2 T02680234 10323 20268 403420237
KLHB 240535Z AUTO 15010KT 10SM BKN021 OVC029 27/24 A2987 RMK AO2 LTG DSNT NW T02700236
KLHB 240515Z AUTO 16009KT 10SM OVC021 27/24 A2987 RMK AO2 T02690238
KLHB 240455Z AUTO 14008KT 10SM OVC021 27/24 A2986 RMK AO2 T02680238
KLHB 240435Z AUTO 14006KT 10SM BKN021 27/24 A2985 RMK AO2 T02700237
KLHB 240415Z AUTO 15009KT 10SM SCT023 27/24 A2984 RMK AO2 T02700236
KLHB 240355Z AUTO 14007KT 10SM CLR 27/23 A2983 RMK AO2 T02690233
KLHB 240335Z AUTO 14007KT 10SM CLR 27/23 A2980 RMK AO2 T02720230
KLHB 240315Z AUTO 14008KT 10SM CLR 28/23 A2979 RMK AO2 T02770228
KLHB 240255Z AUTO 15011G15KT 10SM CLR 28/23 A2978 RMK AO2 T02810225
KLHB 240235Z AUTO 14009KT 10SM CLR 28/22 A2978 RMK AO2 T02810224
KLHB 240215Z AUTO 14008KT 10SM CLR 28/22 A2977 RMK AO2 T02830222
KLHB 240155Z AUTO 14008KT 10SM CLR 29/22 A2977 RMK AO2 T02900220
KLHB 240135Z AUTO 14010G16KT 10SM CLR 30/22 A2977 RMK AO2 T02960217
KLHB 240115Z AUTO 14010G14KT 10SM CLR 30/22 A2977 RMK AO2 T03020220
KLHB 240055Z AUTO 14010G17KT 10SM CLR 31/22 A2977 RMK AO2 T03080223
KLHB 240035Z AUTO 14009G15KT 10SM CLR 32/23 A2977 RMK AO2 T03150225
KLHB 240015Z AUTO 14010G17KT 10SM CLR 32/23 A2977 RMK AO2 T03200226
KLHB 232355Z AUTO 15011G17KT 10SM CLR 32/23 A2976 RMK AO2 T03230228 10342 20313
KLHB 232335Z AUTO 13013G18KT 10SM CLR 33/23 A2976 RMK AO2 T03250231
KLHB 232315Z AUTO 14011G18KT 10SM CLR 33/23 A2976 RMK AO2 T03300231
KLHB 232255Z AUTO 14014G18KT 10SM CLR 33/24 A2976 RMK AO2 T03310235
KLHB 232235Z AUTO 14013G19KT 10SM CLR 34/23 A2977 RMK AO2 T03360233
KLHB 232215Z AUTO 14011G17KT 10SM CLR 34/23 A2978 RMK AO2 T03390227
KLHB 232155Z AUTO 14010G18KT 10SM CLR 34/23 A2979 RMK AO2 T03380225
KLHB 232135Z AUTO 14011G15KT 10SM CLR 34/22 A2979 RMK AO2 T03390223
KLHB 232115Z AUTO 14010G15KT 10SM CLR 34/23 A2980 RMK AO2 T03380227
KLHB 232055Z AUTO 14013G18KT 10SM SCT050 34/23 A2981 RMK AO2 T03390225
KLHB 232035Z AUTO 14011G17KT 10SM SCT050 34/22 A2981 RMK AO2 T03360222
KLHB 232015Z AUTO 14011G14KT 10SM SCT046 33/22 A2982 RMK AO2 T03330221
KLHB 231955Z AUTO 13010KT 10SM SCT046 33/23 A2983 RMK AO2 T03310225
KLHB 231935Z AUTO 15009G15KT 10SM SCT044 33/23 A2984 RMK AO2 T03300225
KLHB 231915Z AUTO 16012G16KT 10SM SCT042 32/22 A2984 RMK AO2 T03230221
KLHB 231855Z AUTO 13009KT 10SM BKN042 32/22 A2985 RMK AO2 T03200222
KLHB 231835Z AUTO 15010KT 10SM BKN042 32/22 A2986 RMK AO2 T03150222
KLHB 231815Z AUTO 13008KT 10SM SCT038 SCT044 32/23 A2987 RMK AO2 T03220226
KLHB 231755Z AUTO 13008KT 10SM SCT034 SCT042 32/23 A2988 RMK AO2 T03160225 10316 20237
KLHB 231735Z AUTO 14005KT 10SM CLR 31/22 A2989 RMK AO2 T03090223
KLHB 231715Z AUTO 15006KT 10SM CLR 31/22 A2990 RMK AO2 T03100224
KLHB 231655Z AUTO 15006KT 10SM SCT036 31/22 A2990 RMK AO2 T03050222
KLHB 231635Z AUTO 16007KT 10SM SCT033 30/22 A2990 RMK AO2 T03010221
KLHB 231615Z AUTO 14009KT 10SM BKN031 31/22 A2990 RMK AO2 T03050220
KLHB 231555Z AUTO 16010G14KT 10SM BKN029 BKN034 30/22 A2990 RMK AO2 T03010221
KLHB 231535Z AUTO 15012KT 10SM SCT027 29/22 A2989 RMK AO2 T02920221
KLHB 231515Z AUTO 16011KT 10SM SCT023 BKN029 29/22 A2988 RMK AO2 T02850220
KLHB 231455Z AUTO 16011G18KT 10SM OVC021 29/22 A2989 RMK AO2 T02880221
KLHB 231435Z AUTO 16012G17KT 10SM BKN021 BKN026 29/22 A2988 RMK AO2 T02850224
KLHB 231415Z AUTO 16012G15KT 10SM SCT017 SCT023 27/23 A2988 RMK AO2 T02670227
KLHB 231355Z AUTO 16012G15KT 10SM OVC015 27/24 A2987 RMK AO2 T02660235
KLHB 231335Z AUTO 15010KT 10SM BKN011 BKN016 26/24 A2987 RMK AO2 T02570240
KLHB 231315Z AUTO 14007KT 10SM SCT007 SCT016 25/24 A2987 RMK AO2 T02520241
KLHB 231255Z AUTO 14005KT 10SM SCT007 BKN014 25/24 A2988 RMK AO2 T02470242
KLHB 231235Z AUTO 13006KT 10SM SCT005 SCT012 24/24 A2988 RMK AO2 T02420241
KLHB 231215Z AUTO 12005KT 10SM CLR 24/24 A2987 RMK AO2 T02400240
KLHB 231155Z AUTO 12003KT 10SM CLR 24/24 A2986 RMK AO2 T02370237 10268 20237
KLHB 231135Z AUTO 13005KT 10SM CLR 24/24 A2985 RMK AO2 T02380238
KLHB 231115Z AUTO 13004KT 10SM CLR 24/24 A2985 RMK AO2 T02380238
KLHB 231055Z AUTO 13004KT 10SM CLR 24/24 A2984 RMK AO2 T02400240
KLHB 231035Z AUTO 13003KT 10SM CLR 24/24 A2984 RMK AO2 T02410241
KLHB 231015Z AUTO 13004KT 10SM CLR 25/24 A2984 RMK AO2 T02450241
KLHB 230955Z AUTO 15006KT 10SM SCT013 25/24 A2984 RMK AO2 T02450240
KLHB 230935Z AUTO 15006KT 10SM SCT013 25/24 A2984 RMK AO2 T02460240
KLHB 230915Z AUTO 15006KT 10SM SCT013 25/24 A2983 RMK AO2 T02480240
KLHB 230855Z AUTO 15009KT 10SM SCT013 25/24 A2982 RMK AO2 T02500241